createdAt,value
2019-02-23T00:02:07.492Z,100.00
2019-02-23T00:04:36.538Z,100.00
2019-02-23T00:07:05.479Z,100.00
2019-02-23T00:09:34.483Z,100.00
2019-02-23T00:12:04.680Z,100.00
2019-02-23T00:14:33.782Z,100.00
2019-02-23T00:17:02.875Z,100.00
2019-02-23T00:19:31.886Z,100.00
2019-02-23T00:22:00.906Z,100.00
2019-02-23T00:24:29.870Z,100.00
2019-02-23T00:26:58.933Z,100.00
2019-02-23T00:29:27.944Z,100.00
2019-02-23T00:31:57.010Z,100.00
2019-02-23T00:34:26.025Z,100.00
2019-02-23T00:36:55.010Z,100.00
2019-02-23T00:39:24.065Z,100.00
2019-02-23T00:41:53.097Z,100.00
2019-02-23T00:44:22.161Z,100.00
2019-02-23T00:46:51.187Z,100.00
2019-02-23T00:49:20.942Z,100.00
2019-02-23T00:51:51.846Z,100.00
2019-02-23T00:54:20.685Z,100.00
2019-02-23T00:56:49.753Z,100.00
2019-02-23T00:59:18.770Z,100.00
2019-02-23T01:01:47.786Z,100.00
2019-02-23T01:04:16.778Z,100.00
2019-02-23T01:06:45.868Z,100.00
2019-02-23T01:09:14.958Z,100.00
2019-02-23T01:11:43.997Z,100.00
2019-02-23T01:14:13.131Z,100.00
2019-02-23T01:16:42.196Z,100.00
2019-02-23T01:19:11.219Z,100.00
2019-02-23T01:21:40.241Z,100.00
2019-02-23T01:24:09.321Z,100.00
2019-02-23T01:26:38.398Z,100.00
2019-02-23T01:29:07.460Z,100.00
2019-02-23T01:31:36.489Z,100.00
2019-02-23T01:34:05.524Z,100.00
2019-02-23T01:36:34.602Z,100.00
2019-02-23T01:39:04.754Z,100.00
2019-02-23T01:41:33.750Z,100.00
2019-02-23T01:44:02.788Z,100.00
2019-02-23T01:46:31.855Z,100.00
2019-02-23T01:49:00.875Z,100.00
2019-02-23T01:51:30.566Z,100.00
2019-02-23T01:53:59.916Z,100.00
2019-02-23T01:56:29.001Z,100.00
2019-02-23T01:58:58.349Z,100.00
2019-02-23T02:01:27.298Z,100.00
2019-02-23T02:03:56.382Z,100.00
2019-02-23T02:06:25.378Z,100.00
2019-02-23T02:08:54.845Z,100.00
2019-02-23T02:11:24.258Z,100.00
2019-02-23T02:13:53.332Z,100.00
2019-02-23T02:16:22.492Z,100.00
2019-02-23T02:18:51.451Z,100.00
2019-02-23T02:21:20.519Z,100.00
2019-02-23T02:23:49.554Z,100.00
2019-02-23T02:26:18.919Z,100.00
2019-02-23T02:28:48.029Z,100.00
2019-02-23T02:31:17.132Z,100.00
2019-02-23T02:34:07.751Z,100.00
2019-02-23T02:36:36.857Z,100.00
2019-02-23T02:39:09.613Z,100.00
2019-02-23T02:41:39.005Z,100.00
2019-02-23T02:44:08.006Z,100.00
2019-02-23T02:46:37.084Z,100.00
2019-02-23T02:49:06.101Z,100.00
2019-02-23T02:51:35.293Z,100.00
2019-02-23T02:54:04.458Z,100.00
2019-02-23T02:56:33.573Z,100.00
2019-02-23T02:59:02.641Z,100.00
2019-02-23T03:01:31.683Z,100.00
2019-02-23T03:04:00.779Z,100.00
2019-02-23T03:06:30.125Z,100.00
2019-02-23T03:08:59.217Z,100.00
2019-02-23T03:11:28.270Z,100.00
2019-02-23T03:13:57.327Z,100.00
2019-02-23T03:16:26.369Z,100.00
2019-02-23T03:18:55.348Z,100.00
2019-02-23T03:21:24.383Z,100.00
2019-02-23T03:23:53.384Z,100.00
2019-02-23T03:26:22.812Z,100.00
2019-02-23T03:28:51.809Z,100.00
2019-02-23T03:31:20.880Z,100.00
2019-02-23T03:33:49.913Z,100.00
2019-02-23T03:36:18.938Z,100.00
2019-02-23T03:38:48.664Z,100.00
2019-02-23T03:41:17.688Z,100.00
2019-02-23T03:43:46.660Z,100.00
2019-02-23T03:46:15.698Z,100.00
2019-02-23T03:48:44.759Z,100.00
2019-02-23T03:51:13.788Z,100.00
2019-02-23T03:53:42.878Z,100.00
2019-02-23T03:56:12.153Z,100.00
2019-02-23T03:58:41.102Z,100.00
2019-02-23T04:01:10.167Z,100.00
2019-02-23T04:03:39.243Z,100.00
2019-02-23T04:06:08.276Z,100.00
2019-02-23T04:08:37.397Z,100.00
2019-02-23T04:11:06.458Z,100.00
2019-02-23T04:13:35.505Z,100.00
2019-02-23T04:16:04.569Z,100.00
2019-02-23T04:18:33.667Z,100.00
2019-02-23T04:21:02.726Z,100.00
2019-02-23T04:23:31.811Z,100.00
2019-02-23T04:26:00.844Z,100.00
2019-02-23T04:28:30.152Z,100.00
2019-02-23T04:30:59.210Z,100.00
2019-02-23T04:33:28.270Z,100.00
2019-02-23T04:35:57.295Z,100.00
2019-02-23T04:38:26.592Z,100.00
2019-02-23T04:40:55.724Z,100.00
2019-02-23T04:43:25.107Z,100.00
2019-02-23T04:45:54.146Z,100.00
2019-02-23T04:48:23.451Z,100.00
2019-02-23T04:50:52.526Z,100.00
2019-02-23T04:53:21.526Z,100.00
2019-02-23T04:55:50.578Z,100.00
2019-02-23T04:58:19.640Z,100.00
2019-02-23T05:00:48.924Z,100.00
2019-02-23T05:03:18.265Z,100.00
2019-02-23T05:05:47.334Z,100.00
2019-02-23T05:08:16.354Z,100.00
2019-02-23T05:10:45.439Z,100.00
2019-02-23T05:13:14.393Z,100.00
2019-02-23T05:15:43.777Z,100.00
2019-02-23T05:18:12.792Z,100.00
2019-02-23T05:20:41.870Z,100.00
2019-02-23T05:23:10.880Z,100.00
2019-02-23T05:25:39.938Z,100.00
2019-02-23T05:28:09.000Z,100.00
2019-02-23T05:30:38.016Z,100.00
2019-02-23T05:33:07.154Z,100.00
2019-02-23T05:35:36.219Z,100.00
2019-02-23T05:38:05.283Z,100.00
2019-02-23T05:40:34.239Z,100.00
2019-02-23T05:43:03.389Z,100.00
2019-02-23T05:45:32.520Z,100.00
2019-02-23T05:48:01.544Z,100.00
2019-02-23T05:50:30.624Z,100.00
2019-02-23T05:52:59.605Z,100.00
2019-02-23T05:55:28.980Z,100.00
2019-02-23T05:57:58.338Z,100.00
2019-02-23T06:00:27.437Z,100.00
2019-02-23T06:02:56.518Z,100.00
2019-02-23T06:05:25.552Z,100.00
2019-02-23T06:07:54.529Z,100.00
2019-02-23T06:10:23.566Z,100.00
2019-02-23T06:12:52.645Z,100.00
2019-02-23T06:15:21.589Z,100.00
2019-02-23T06:17:50.642Z,100.00
2019-02-23T06:20:19.759Z,100.00
2019-02-23T06:22:48.817Z,100.00
2019-02-23T06:25:18.056Z,100.00
2019-02-23T06:27:47.179Z,100.00
2019-02-23T06:30:18.446Z,100.00
2019-02-23T06:32:47.076Z,100.00
2019-02-23T06:35:16.150Z,100.00
2019-02-23T06:37:45.182Z,100.00
2019-02-23T06:40:14.209Z,100.00
2019-02-23T06:42:43.346Z,100.00
2019-02-23T06:45:12.460Z,100.00
2019-02-23T06:47:41.813Z,100.00
2019-02-23T06:50:10.843Z,100.00
2019-02-23T06:52:39.962Z,100.00
2019-02-23T06:55:09.015Z,100.00
2019-02-23T06:57:38.048Z,100.00
2019-02-23T07:00:09.419Z,100.00
2019-02-23T07:02:38.467Z,100.00
2019-02-23T07:05:07.567Z,100.00
2019-02-23T07:07:36.906Z,100.00
2019-02-23T07:10:07.533Z,100.00
2019-02-23T07:12:36.559Z,100.00
2019-02-23T07:15:05.838Z,100.00
2019-02-23T07:17:34.853Z,100.00
2019-02-23T07:20:03.900Z,100.00
2019-02-23T07:22:33.849Z,100.00
2019-02-23T07:25:02.878Z,100.00
2019-02-23T07:27:31.961Z,100.00
2019-02-23T07:30:01.068Z,100.00
2019-02-23T07:32:30.154Z,100.00
2019-02-23T07:34:59.178Z,100.00
2019-02-23T07:37:28.170Z,100.00
2019-02-23T07:39:57.219Z,100.00
2019-02-23T07:42:26.543Z,100.00
2019-02-23T07:44:55.517Z,100.00
2019-02-23T07:47:24.542Z,100.00
2019-02-23T07:49:53.596Z,100.00
2019-02-23T07:52:26.247Z,100.00
2019-02-23T07:54:53.652Z,100.00
2019-02-23T07:57:24.076Z,100.00
2019-02-23T07:59:53.101Z,100.00
2019-02-23T08:02:22.169Z,100.00
2019-02-23T08:04:51.223Z,100.00
2019-02-23T08:07:20.246Z,100.00
2019-02-23T08:09:49.261Z,100.00
2019-02-23T08:12:18.342Z,100.00
2019-02-23T08:14:47.428Z,100.00
2019-02-23T08:17:16.514Z,100.00
2019-02-23T08:19:45.569Z,100.00
2019-02-23T08:22:14.638Z,100.00
2019-02-23T08:24:43.647Z,100.00
2019-02-23T08:27:12.701Z,100.00
2019-02-23T08:29:41.636Z,100.00
2019-02-23T08:32:10.702Z,100.00
2019-02-23T08:34:39.714Z,100.00
2019-02-23T08:37:08.730Z,100.00
2019-02-23T08:39:37.858Z,100.00
2019-02-23T08:42:06.906Z,100.00
2019-02-23T08:44:35.953Z,100.00
2019-02-23T08:47:05.006Z,100.00
2019-02-23T08:49:34.482Z,100.00
2019-02-23T08:52:03.750Z,100.00
2019-02-23T08:54:32.748Z,100.00
2019-02-23T08:57:01.777Z,100.00
2019-02-23T08:59:30.828Z,100.00
2019-02-23T09:01:59.847Z,100.00
2019-02-23T09:04:28.916Z,100.00
2019-02-23T09:06:57.982Z,100.00
2019-02-23T09:09:27.053Z,100.00
2019-02-23T09:11:56.425Z,100.00
2019-02-23T09:14:25.455Z,100.00
2019-02-23T09:16:54.390Z,100.00
2019-02-23T09:19:23.441Z,100.00
2019-02-23T09:21:52.617Z,100.00
2019-02-23T09:24:21.572Z,100.00
2019-02-23T09:26:50.643Z,100.00
2019-02-23T09:29:19.620Z,100.00
2019-02-23T09:31:48.683Z,100.00
2019-02-23T09:34:17.986Z,100.00
2019-02-23T09:36:47.112Z,100.00
2019-02-23T09:39:16.052Z,100.00
2019-02-23T09:41:45.065Z,99.32
2019-02-23T09:44:14.136Z,98.26
2019-02-23T09:46:43.154Z,96.96
2019-02-23T09:49:12.162Z,96.04
2019-02-23T09:51:41.219Z,96.03
2019-02-23T09:54:10.243Z,94.10
2019-02-23T09:56:39.249Z,90.51
2019-02-23T09:59:08.300Z,91.02
2019-02-23T10:01:37.369Z,88.90
2019-02-23T10:04:06.376Z,85.21
2019-02-23T10:06:35.425Z,87.05
2019-02-23T10:09:05.581Z,85.57
2019-02-23T10:11:34.877Z,85.49
2019-02-23T10:14:03.922Z,86.00
2019-02-23T10:16:32.883Z,83.12
2019-02-23T10:19:01.937Z,81.73
2019-02-23T10:21:30.952Z,81.58
2019-02-23T10:23:59.938Z,78.21
2019-02-23T10:26:28.943Z,81.26
2019-02-23T10:28:57.955Z,79.92
2019-02-23T10:31:26.950Z,76.75
2019-02-23T10:33:55.965Z,76.90
2019-02-23T10:36:25.011Z,75.92
2019-02-23T10:38:54.052Z,75.79
2019-02-23T10:41:23.136Z,73.24
2019-02-23T10:43:52.115Z,72.81
2019-02-23T10:46:21.136Z,69.67
2019-02-23T10:48:50.135Z,70.95
2019-02-23T10:51:19.489Z,74.33
2019-02-23T10:53:48.443Z,71.33
2019-02-23T10:56:17.791Z,71.81
2019-02-23T10:58:46.861Z,67.43
2019-02-23T11:01:15.923Z,70.01
2019-02-23T11:03:44.935Z,70.45
2019-02-23T11:06:14.204Z,72.43
2019-02-23T11:08:43.261Z,67.54
2019-02-23T11:11:12.320Z,69.72
2019-02-23T11:13:41.373Z,69.38
2019-02-23T11:16:10.604Z,67.93
2019-02-23T11:18:39.897Z,69.15
2019-02-23T11:21:08.976Z,68.35
2019-02-23T11:23:44.258Z,68.51
2019-02-23T11:26:08.845Z,65.99
2019-02-23T11:28:37.892Z,69.10
2019-02-23T11:31:06.966Z,66.22
2019-02-23T11:33:36.023Z,66.34
2019-02-23T11:36:05.038Z,66.98
2019-02-23T11:38:34.110Z,67.60
2019-02-23T11:41:03.094Z,66.70
2019-02-23T11:43:32.151Z,65.99
2019-02-23T11:46:01.184Z,62.51
2019-02-23T11:48:30.194Z,63.87
2019-02-23T11:50:59.172Z,63.90
2019-02-23T11:53:28.589Z,65.97
2019-02-23T11:55:57.643Z,63.24
2019-02-23T11:58:26.654Z,62.54
2019-02-23T12:00:55.724Z,63.31
2019-02-23T12:03:24.670Z,64.93
2019-02-23T12:05:53.724Z,64.15
2019-02-23T12:08:22.791Z,64.36
2019-02-23T12:10:52.178Z,65.08
2019-02-23T12:13:21.196Z,64.94
2019-02-23T12:15:50.217Z,64.41
2019-02-23T12:18:19.726Z,65.07
2019-02-23T12:20:48.776Z,64.48
2019-02-23T12:23:17.805Z,65.50
2019-02-23T12:25:46.933Z,66.23
2019-02-23T12:28:15.937Z,64.31
2019-02-23T12:30:45.025Z,64.30
2019-02-23T12:33:14.075Z,63.66
2019-02-23T12:35:43.433Z,63.74
2019-02-23T12:38:12.536Z,66.09
2019-02-23T12:40:41.941Z,66.44
2019-02-23T12:43:11.007Z,64.97
2019-02-23T12:45:40.353Z,62.42
2019-02-23T12:48:09.312Z,63.57
2019-02-23T12:50:38.362Z,62.43
2019-02-23T12:53:07.462Z,62.50
2019-02-23T12:55:37.564Z,64.06
2019-02-23T12:58:06.567Z,62.85
2019-02-23T13:00:35.628Z,65.28
2019-02-23T13:03:04.688Z,64.24
2019-02-23T13:05:33.703Z,63.44
2019-02-23T13:08:02.732Z,63.53
2019-02-23T13:10:31.801Z,61.95
2019-02-23T13:13:34.613Z,61.02
2019-02-23T13:16:25.417Z,58.82
2019-02-23T13:19:53.770Z,60.99
2019-02-23T13:22:31.703Z,60.26
2019-02-23T13:25:22.784Z,60.36
2019-02-23T13:28:35.006Z,57.61
2019-02-23T13:31:33.959Z,58.90
2019-02-23T13:34:33.387Z,56.97
2019-02-23T13:37:17.977Z,56.23
2019-02-23T13:40:06.389Z,58.68
2019-02-23T13:43:10.034Z,57.86
2019-02-23T13:45:57.526Z,58.16
2019-02-23T13:48:56.477Z,57.77
2019-02-23T13:52:15.472Z,54.61
2019-02-23T13:55:27.130Z,54.44
2019-02-23T13:58:10.835Z,55.13
2019-02-23T14:01:21.196Z,57.82
2019-02-23T14:04:40.357Z,56.18
2019-02-23T14:08:00.267Z,55.84
2019-02-23T14:10:49.089Z,56.50
2019-02-23T14:13:42.403Z,57.99
2019-02-23T14:16:42.807Z,58.06
2019-02-23T14:19:33.398Z,57.32
2019-02-23T14:22:34.878Z,56.70
2019-02-23T14:25:45.753Z,56.04
2019-02-23T14:28:57.744Z,56.06
2019-02-23T14:31:34.428Z,56.53
2019-02-23T14:35:02.637Z,56.65
2019-02-23T14:38:07.608Z,57.48
2019-02-23T14:41:01.129Z,57.47
2019-02-23T14:43:56.156Z,57.22
2019-02-23T14:47:12.666Z,56.89
2019-02-23T14:50:25.983Z,57.07
2019-02-23T14:53:19.034Z,56.44
2019-02-23T14:56:23.786Z,57.54
2019-02-23T14:59:25.251Z,58.29
2019-02-23T15:02:14.687Z,57.40
2019-02-23T15:05:16.933Z,57.38
2019-02-23T15:08:21.442Z,58.13
2019-02-23T15:11:46.698Z,58.78
2019-02-23T15:14:39.642Z,58.14
2019-02-23T15:17:49.727Z,58.45
2019-02-23T15:20:43.644Z,58.31
2019-02-23T15:23:45.349Z,58.94
2019-02-23T15:26:50.880Z,59.81
2019-02-23T15:29:46.693Z,60.30
2019-02-23T15:33:00.464Z,60.82
2019-02-23T15:36:03.790Z,61.54
2019-02-23T15:39:18.697Z,61.29
2019-02-23T15:42:23.581Z,61.87
2019-02-23T15:45:28.479Z,62.36
2019-02-23T15:48:44.644Z,63.41
2019-02-23T15:51:13.640Z,64.61
2019-02-23T15:53:42.726Z,65.46
2019-02-23T15:56:11.718Z,66.03
2019-02-23T15:58:40.687Z,66.54
2019-02-23T16:01:09.696Z,66.78
2019-02-23T16:03:38.751Z,68.19
2019-02-23T16:06:07.797Z,69.67
2019-02-23T16:08:36.871Z,71.13
2019-02-23T16:11:05.884Z,70.85
2019-02-23T16:13:34.946Z,70.92
2019-02-23T16:16:03.980Z,71.32
2019-02-23T16:18:33.089Z,70.79
2019-02-23T16:21:02.105Z,71.64
2019-02-23T16:23:35.367Z,71.77
2019-02-23T16:26:02.201Z,72.46
2019-02-23T16:28:31.210Z,72.87
2019-02-23T16:31:00.286Z,72.67
2019-02-23T16:33:30.893Z,72.24
2019-02-23T16:35:59.964Z,72.47
2019-02-23T16:38:28.979Z,73.29
2019-02-23T16:40:58.080Z,74.17
2019-02-23T16:43:27.097Z,74.18
2019-02-23T16:45:56.153Z,75.03
2019-02-23T16:48:25.402Z,75.94
2019-02-23T16:50:54.409Z,76.71
2019-02-23T16:53:23.465Z,78.61
2019-02-23T16:55:52.592Z,79.26
2019-02-23T16:58:21.613Z,80.12
2019-02-23T17:00:50.625Z,80.65
2019-02-23T17:03:19.693Z,81.09
2019-02-23T17:05:48.757Z,82.81
2019-02-23T17:08:17.806Z,83.94
2019-02-23T17:10:46.736Z,85.92
2019-02-23T17:13:15.795Z,87.50
2019-02-23T17:15:44.870Z,88.50
2019-02-23T17:18:13.824Z,89.69
2019-02-23T17:20:42.875Z,92.69
2019-02-23T17:23:11.922Z,95.43
2019-02-23T17:25:40.960Z,95.45
2019-02-23T17:28:10.009Z,94.51
2019-02-23T17:30:39.096Z,95.17
2019-02-23T17:33:08.113Z,95.04
2019-02-23T17:35:37.100Z,96.80
2019-02-23T17:38:16.782Z,98.42
2019-02-23T17:40:36.774Z,100.00
2019-02-23T17:43:05.760Z,100.00
2019-02-23T17:45:34.771Z,100.00
2019-02-23T17:48:03.836Z,100.00
2019-02-23T17:50:32.781Z,100.00
2019-02-23T17:53:01.878Z,100.00
2019-02-23T17:55:30.933Z,100.00
2019-02-23T17:57:59.986Z,100.00
2019-02-23T18:00:28.990Z,100.00
2019-02-23T18:02:57.980Z,100.00
2019-02-23T18:05:28.443Z,100.00
2019-02-23T18:07:57.689Z,100.00
2019-02-23T18:10:26.748Z,100.00
2019-02-23T18:12:55.872Z,100.00
2019-02-23T18:15:24.924Z,100.00
2019-02-23T18:17:53.993Z,100.00
2019-02-23T18:20:23.035Z,100.00
2019-02-23T18:22:52.043Z,100.00
2019-02-23T18:25:21.107Z,100.00
2019-02-23T18:27:50.223Z,100.00
2019-02-23T18:30:19.477Z,100.00
2019-02-23T18:32:48.540Z,100.00
2019-02-23T18:35:17.561Z,100.00
2019-02-23T18:37:46.612Z,100.00
2019-02-23T18:40:15.963Z,100.00
2019-02-23T18:42:45.430Z,100.00
2019-02-23T18:45:14.490Z,100.00
2019-02-23T18:47:43.492Z,100.00
2019-02-23T18:50:12.575Z,100.00
2019-02-23T18:52:41.584Z,100.00
2019-02-23T18:55:10.615Z,100.00
2019-02-23T18:57:39.693Z,100.00
2019-02-23T19:00:10.074Z,100.00
2019-02-23T19:02:39.080Z,100.00
2019-02-23T19:05:09.997Z,100.00
2019-02-23T19:07:39.034Z,100.00
2019-02-23T19:10:09.806Z,100.00
2019-02-23T19:12:39.193Z,100.00
2019-02-23T19:15:09.508Z,100.00
2019-02-23T19:17:38.522Z,100.00
2019-02-23T19:20:10.090Z,100.00
2019-02-23T19:22:39.134Z,100.00
2019-02-23T19:25:09.309Z,100.00
2019-02-23T19:27:38.378Z,100.00
2019-02-23T19:30:09.053Z,100.00
2019-02-23T19:32:38.210Z,100.00
2019-02-23T19:35:07.259Z,100.00
2019-02-23T19:37:36.337Z,100.00
2019-02-23T19:40:05.417Z,100.00
2019-02-23T19:42:34.488Z,100.00
2019-02-23T19:45:03.560Z,100.00
2019-02-23T19:47:34.726Z,100.00
2019-02-23T19:50:16.041Z,100.00
2019-02-23T19:52:45.381Z,100.00
2019-02-23T19:55:16.139Z,100.00
2019-02-23T19:57:45.111Z,100.00
2019-02-23T20:00:14.131Z,100.00
2019-02-23T20:02:43.215Z,100.00
2019-02-23T20:05:12.287Z,100.00
2019-02-23T20:07:41.638Z,100.00
2019-02-23T20:10:10.733Z,100.00
2019-02-23T20:12:39.680Z,100.00
2019-02-23T20:15:08.724Z,100.00
2019-02-23T20:17:38.118Z,100.00
2019-02-23T20:20:07.250Z,100.00
2019-02-23T20:22:36.336Z,100.00
2019-02-23T20:25:05.667Z,100.00
2019-02-23T20:27:34.702Z,100.00
2019-02-23T20:30:03.784Z,100.00
2019-02-23T20:32:33.518Z,100.00
2019-02-23T20:35:02.564Z,100.00
2019-02-23T20:37:31.792Z,100.00
2019-02-23T20:40:00.803Z,100.00
2019-02-23T20:42:30.214Z,100.00
2019-02-23T20:44:59.253Z,100.00
2019-02-23T20:47:28.243Z,100.00
2019-02-23T20:49:57.355Z,100.00
2019-02-23T20:52:26.407Z,100.00
2019-02-23T20:54:55.419Z,100.00
2019-02-23T20:57:24.449Z,100.00
2019-02-23T20:59:53.505Z,100.00
2019-02-23T21:02:22.604Z,100.00
2019-02-23T21:04:51.551Z,100.00
2019-02-23T21:07:20.621Z,100.00
2019-02-23T21:09:49.669Z,100.00
2019-02-23T21:12:18.634Z,100.00
2019-02-23T21:14:47.749Z,100.00
2019-02-23T21:17:16.802Z,100.00
2019-02-23T21:19:45.744Z,100.00
2019-02-23T21:22:15.309Z,100.00
2019-02-23T21:24:44.350Z,100.00
2019-02-23T21:27:13.391Z,100.00
2019-02-23T21:29:42.420Z,100.00
2019-02-23T21:32:11.448Z,100.00
2019-02-23T21:34:40.496Z,100.00
2019-02-23T21:37:09.525Z,100.00
2019-02-23T21:39:40.442Z,100.00
2019-02-23T21:42:09.597Z,100.00
2019-02-23T21:44:38.981Z,100.00
2019-02-23T21:47:08.110Z,100.00
2019-02-23T21:49:37.193Z,100.00
2019-02-23T21:52:06.255Z,100.00
2019-02-23T21:54:35.317Z,100.00
2019-02-23T21:57:04.357Z,100.00
2019-02-23T21:59:33.387Z,100.00
2019-02-23T22:02:02.435Z,100.00
2019-02-23T22:04:31.458Z,100.00
2019-02-23T22:07:00.489Z,100.00
2019-02-23T22:09:29.532Z,100.00
2019-02-23T22:11:58.523Z,100.00
2019-02-23T22:14:27.569Z,100.00
2019-02-23T22:16:56.661Z,100.00
2019-02-23T22:19:25.671Z,100.00
2019-02-23T22:21:54.701Z,100.00
2019-02-23T22:24:23.753Z,100.00
2019-02-23T22:26:52.856Z,100.00
2019-02-23T22:29:21.804Z,100.00
2019-02-23T22:31:50.906Z,100.00
2019-02-23T22:34:19.893Z,100.00
2019-02-23T22:36:48.934Z,100.00
2019-02-23T22:39:17.993Z,100.00
2019-02-23T22:41:49.568Z,100.00
2019-02-23T22:44:17.854Z,100.00
2019-02-23T22:46:46.847Z,100.00
2019-02-23T22:49:15.894Z,100.00
2019-02-23T22:51:44.972Z,100.00
2019-02-23T22:54:13.998Z,100.00
2019-02-23T22:56:42.943Z,100.00
2019-02-23T22:59:12.017Z,100.00
2019-02-23T23:01:41.162Z,100.00
2019-02-23T23:04:10.246Z,100.00
2019-02-23T23:06:39.258Z,100.00
2019-02-23T23:09:12.448Z,100.00
2019-02-23T23:11:41.450Z,100.00
2019-02-23T23:14:10.835Z,100.00
2019-02-23T23:16:39.840Z,100.00
2019-02-23T23:19:08.896Z,100.00
2019-02-23T23:21:37.894Z,100.00
2019-02-23T23:24:06.944Z,100.00
2019-02-23T23:26:35.990Z,100.00
2019-02-23T23:29:05.091Z,100.00
2019-02-23T23:31:34.157Z,100.00
2019-02-23T23:34:03.214Z,100.00
2019-02-23T23:36:32.192Z,100.00
2019-02-23T23:39:01.247Z,100.00
2019-02-23T23:41:30.307Z,100.00
2019-02-23T23:43:59.632Z,100.00
2019-02-23T23:46:28.697Z,100.00
2019-02-23T23:48:57.709Z,100.00
2019-02-23T23:51:26.743Z,100.00
2019-02-23T23:53:55.836Z,100.00
2019-02-23T23:56:24.774Z,100.00
2019-02-23T23:58:53.793Z,100.00
